sensor_id;sensor_type;location;lat;lon;timestamp;P1;durP1;ratioP1;P2;durP2;ratioP2
6346;SDS011;3206;42.666;23.600;2022-11-20T00:00:06;1.87;;;1.57;;
6346;SDS011;3206;42.666;23.600;2022-11-20T00:02:33;1.87;;;1.33;;
6346;SDS011;3206;42.666;23.600;2022-11-20T00:05:00;1.27;;;1.20;;
6346;SDS011;3206;42.666;23.600;2022-11-20T00:07:28;1.70;;;1.60;;
6346;SDS011;3206;42.666;23.600;2022-11-20T00:09:55;2.70;;;2.50;;
6346;SDS011;3206;42.666;23.600;2022-11-20T00:12:21;1.73;;;1.57;;
6346;SDS011;3206;42.666;23.600;2022-11-20T00:14:48;1.50;;;1.40;;
6346;SDS011;3206;42.666;23.600;2022-11-20T00:17:14;2.00;;;1.70;;
6346;SDS011;3206;42.666;23.600;2022-11-20T00:19:41;2.73;;;1.80;;
6346;SDS011;3206;42.666;23.600;2022-11-20T00:22:08;1.60;;;1.50;;
6346;SDS011;3206;42.666;23.600;2022-11-20T00:24:36;1.48;;;1.38;;
6346;SDS011;3206;42.666;23.600;2022-11-20T00:27:02;1.80;;;1.50;;
6346;SDS011;3206;42.666;23.600;2022-11-20T00:29:29;1.70;;;1.60;;
6346;SDS011;3206;42.666;23.600;2022-11-20T00:31:55;1.80;;;1.67;;
6346;SDS011;3206;42.666;23.600;2022-11-20T00:34:22;1.48;;;1.20;;
6346;SDS011;3206;42.666;23.600;2022-11-20T00:36:49;2.00;;;1.90;;
6346;SDS011;3206;42.666;23.600;2022-11-20T00:39:15;1.00;;;1.00;;
6346;SDS011;3206;42.666;23.600;2022-11-20T00:41:43;1.87;;;1.77;;
6346;SDS011;3206;42.666;23.600;2022-11-20T00:44:10;1.67;;;1.60;;
6346;SDS011;3206;42.666;23.600;2022-11-20T00:46:37;1.43;;;1.37;;
6346;SDS011;3206;42.666;23.600;2022-11-20T00:49:03;3.67;;;2.20;;
6346;SDS011;3206;42.666;23.600;2022-11-20T00:51:30;1.83;;;1.73;;
6346;SDS011;3206;42.666;23.600;2022-11-20T00:53:57;1.42;;;1.33;;
6346;SDS011;3206;42.666;23.600;2022-11-20T00:56:25;1.37;;;1.33;;
6346;SDS011;3206;42.666;23.600;2022-11-20T00:58:53;1.33;;;1.23;;
6346;SDS011;3206;42.666;23.600;2022-11-20T01:01:20;1.63;;;1.53;;
6346;SDS011;3206;42.666;23.600;2022-11-20T01:03:49;2.33;;;2.13;;
6346;SDS011;3206;42.666;23.600;2022-11-20T01:06:18;1.80;;;1.70;;
6346;SDS011;3206;42.666;23.600;2022-11-20T01:08:46;1.70;;;1.60;;
6346;SDS011;3206;42.666;23.600;2022-11-20T01:11:14;1.10;;;1.03;;
6346;SDS011;3206;42.666;23.600;2022-11-20T01:13:45;2.70;;;2.10;;
6346;SDS011;3206;42.666;23.600;2022-11-20T01:16:14;1.40;;;1.30;;
6346;SDS011;3206;42.666;23.600;2022-11-20T01:18:43;1.13;;;1.13;;
6346;SDS011;3206;42.666;23.600;2022-11-20T01:21:14;1.37;;;0.90;;
6346;SDS011;3206;42.666;23.600;2022-11-20T01:23:42;1.57;;;1.43;;
6346;SDS011;3206;42.666;23.600;2022-11-20T01:26:10;1.07;;;1.03;;
6346;SDS011;3206;42.666;23.600;2022-11-20T01:28:38;1.27;;;1.20;;
6346;SDS011;3206;42.666;23.600;2022-11-20T01:31:10;0.97;;;0.97;;
6346;SDS011;3206;42.666;23.600;2022-11-20T01:33:39;1.63;;;1.53;;
6346;SDS011;3206;42.666;23.600;2022-11-20T01:36:07;1.30;;;1.20;;
6346;SDS011;3206;42.666;23.600;2022-11-20T01:38:35;2.20;;;1.53;;
6346;SDS011;3206;42.666;23.600;2022-11-20T01:41:02;1.10;;;1.10;;
6346;SDS011;3206;42.666;23.600;2022-11-20T01:43:29;1.80;;;1.53;;
6346;SDS011;3206;42.666;23.600;2022-11-20T01:45:56;1.43;;;1.43;;
6346;SDS011;3206;42.666;23.600;2022-11-20T01:48:27;1.20;;;1.10;;
6346;SDS011;3206;42.666;23.600;2022-11-20T01:51:00;0.93;;;0.93;;
6346;SDS011;3206;42.666;23.600;2022-11-20T01:53:29;1.80;;;1.70;;
6346;SDS011;3206;42.666;23.600;2022-11-20T01:56:00;1.23;;;1.03;;
6346;SDS011;3206;42.666;23.600;2022-11-20T01:58:30;1.73;;;1.63;;
6346;SDS011;3206;42.666;23.600;2022-11-20T02:00:59;1.33;;;1.27;;
6346;SDS011;3206;42.666;23.600;2022-11-20T02:03:26;1.10;;;1.10;;
6346;SDS011;3206;42.666;23.600;2022-11-20T02:05:55;1.17;;;1.17;;
6346;SDS011;3206;42.666;23.600;2022-11-20T02:08:29;1.00;;;1.00;;
6346;SDS011;3206;42.666;23.600;2022-11-20T02:10:57;1.53;;;1.37;;
6346;SDS011;3206;42.666;23.600;2022-11-20T02:13:24;2.20;;;1.57;;
6346;SDS011;3206;42.666;23.600;2022-11-20T02:16:10;1.20;;;1.20;;
6346;SDS011;3206;42.666;23.600;2022-11-20T02:18:39;1.37;;;1.17;;
6346;SDS011;3206;42.666;23.600;2022-11-20T02:21:07;2.97;;;1.53;;
6346;SDS011;3206;42.666;23.600;2022-11-20T02:26:19;1.57;;;1.47;;
6346;SDS011;3206;42.666;23.600;2022-11-20T02:28:48;1.10;;;1.10;;
6346;SDS011;3206;42.666;23.600;2022-11-20T02:31:15;1.40;;;1.30;;
6346;SDS011;3206;42.666;23.600;2022-11-20T02:33:42;2.97;;;2.03;;
6346;SDS011;3206;42.666;23.600;2022-11-20T02:36:09;1.70;;;1.60;;
6346;SDS011;3206;42.666;23.600;2022-11-20T02:38:40;3.43;;;1.50;;
6346;SDS011;3206;42.666;23.600;2022-11-20T02:41:09;1.10;;;0.87;;
6346;SDS011;3206;42.666;23.600;2022-11-20T02:43:36;1.70;;;1.60;;
6346;SDS011;3206;42.666;23.600;2022-11-20T02:46:02;1.87;;;1.10;;
6346;SDS011;3206;42.666;23.600;2022-11-20T02:48:29;6.20;;;1.13;;
6346;SDS011;3206;42.666;23.600;2022-11-20T02:50:55;1.57;;;1.50;;
6346;SDS011;3206;42.666;23.600;2022-11-20T02:53:22;1.13;;;1.13;;
6346;SDS011;3206;42.666;23.600;2022-11-20T02:55:49;1.23;;;1.13;;
6346;SDS011;3206;42.666;23.600;2022-11-20T02:58:17;1.37;;;1.10;;
6346;SDS011;3206;42.666;23.600;2022-11-20T03:00:43;0.87;;;0.87;;
6346;SDS011;3206;42.666;23.600;2022-11-20T03:03:10;1.60;;;1.50;;
6346;SDS011;3206;42.666;23.600;2022-11-20T03:05:37;2.57;;;2.23;;
6346;SDS011;3206;42.666;23.600;2022-11-20T03:08:04;1.67;;;1.50;;
6346;SDS011;3206;42.666;23.600;2022-11-20T03:10:30;0.60;;;0.60;;
6346;SDS011;3206;42.666;23.600;2022-11-20T03:12:57;0.80;;;0.80;;
6346;SDS011;3206;42.666;23.600;2022-11-20T03:15:25;0.60;;;0.60;;
6346;SDS011;3206;42.666;23.600;2022-11-20T03:17:53;2.00;;;0.85;;
6346;SDS011;3206;42.666;23.600;2022-11-20T03:20:20;0.40;;;0.40;;
6346;SDS011;3206;42.666;23.600;2022-11-20T03:22:47;0.40;;;0.40;;
6346;SDS011;3206;42.666;23.600;2022-11-20T03:25:14;0.47;;;0.40;;
6346;SDS011;3206;42.666;23.600;2022-11-20T03:27:40;0.40;;;0.40;;
6346;SDS011;3206;42.666;23.600;2022-11-20T03:30:07;0.40;;;0.40;;
6346;SDS011;3206;42.666;23.600;2022-11-20T03:32:36;0.30;;;0.30;;
6346;SDS011;3206;42.666;23.600;2022-11-20T03:35:03;0.32;;;0.32;;
6346;SDS011;3206;42.666;23.600;2022-11-20T03:37:31;0.30;;;0.30;;
6346;SDS011;3206;42.666;23.600;2022-11-20T03:39:58;1.00;;;0.70;;
6346;SDS011;3206;42.666;23.600;2022-11-20T03:42:24;0.30;;;0.30;;
6346;SDS011;3206;42.666;23.600;2022-11-20T03:45:08;5.97;;;0.63;;
6346;SDS011;3206;42.666;23.600;2022-11-20T03:47:37;0.30;;;0.30;;
6346;SDS011;3206;42.666;23.600;2022-11-20T03:50:04;0.40;;;0.40;;
6346;SDS011;3206;42.666;23.600;2022-11-20T03:52:31;0.57;;;0.57;;
6346;SDS011;3206;42.666;23.600;2022-11-20T03:54:57;0.30;;;0.30;;
6346;SDS011;3206;42.666;23.600;2022-11-20T03:57:24;0.50;;;0.50;;
6346;SDS011;3206;42.666;23.600;2022-11-20T03:59:51;0.50;;;0.50;;
6346;SDS011;3206;42.666;23.600;2022-11-20T04:02:17;0.30;;;0.30;;
6346;SDS011;3206;42.666;23.600;2022-11-20T04:04:46;0.30;;;0.30;;
6346;SDS011;3206;42.666;23.600;2022-11-20T04:07:12;0.40;;;0.40;;
6346;SDS011;3206;42.666;23.600;2022-11-20T04:09:39;0.30;;;0.30;;
6346;SDS011;3206;42.666;23.600;2022-11-20T04:12:05;0.50;;;0.50;;
6346;SDS011;3206;42.666;23.600;2022-11-20T04:14:32;0.30;;;0.30;;
6346;SDS011;3206;42.666;23.600;2022-11-20T04:16:59;0.30;;;0.30;;
6346;SDS011;3206;42.666;23.600;2022-11-20T04:19:25;0.40;;;0.40;;
6346;SDS011;3206;42.666;23.600;2022-11-20T04:21:53;0.40;;;0.40;;
6346;SDS011;3206;42.666;23.600;2022-11-20T04:24:20;0.30;;;0.30;;
6346;SDS011;3206;42.666;23.600;2022-11-20T04:26:47;0.50;;;0.50;;
6346;SDS011;3206;42.666;23.600;2022-11-20T04:29:13;0.30;;;0.30;;
6346;SDS011;3206;42.666;23.600;2022-11-20T04:31:40;0.63;;;0.63;;
6346;SDS011;3206;42.666;23.600;2022-11-20T04:34:07;0.30;;;0.30;;
6346;SDS011;3206;42.666;23.600;2022-11-20T04:36:33;0.70;;;0.70;;
6346;SDS011;3206;42.666;23.600;2022-11-20T04:39:03;0.40;;;0.40;;
6346;SDS011;3206;42.666;23.600;2022-11-20T04:41:31;0.30;;;0.30;;
6346;SDS011;3206;42.666;23.600;2022-11-20T04:43:59;0.43;;;0.43;;
6346;SDS011;3206;42.666;23.600;2022-11-20T04:46:28;0.52;;;0.52;;
6346;SDS011;3206;42.666;23.600;2022-11-20T04:48:56;0.40;;;0.40;;
6346;SDS011;3206;42.666;23.600;2022-11-20T04:51:23;0.30;;;0.30;;
6346;SDS011;3206;42.666;23.600;2022-11-20T04:53:49;0.30;;;0.30;;
6346;SDS011;3206;42.666;23.600;2022-11-20T04:56:18;0.60;;;0.60;;
6346;SDS011;3206;42.666;23.600;2022-11-20T04:58:44;2.83;;;0.60;;
6346;SDS011;3206;42.666;23.600;2022-11-20T05:01:11;0.30;;;0.30;;
6346;SDS011;3206;42.666;23.600;2022-11-20T05:03:40;0.40;;;0.40;;
6346;SDS011;3206;42.666;23.600;2022-11-20T05:06:08;0.93;;;0.60;;
6346;SDS011;3206;42.666;23.600;2022-11-20T05:08:36;0.40;;;0.40;;
6346;SDS011;3206;42.666;23.600;2022-11-20T05:11:03;0.30;;;0.30;;
6346;SDS011;3206;42.666;23.600;2022-11-20T05:13:33;0.30;;;0.30;;
6346;SDS011;3206;42.666;23.600;2022-11-20T05:16:03;0.30;;;0.30;;
6346;SDS011;3206;42.666;23.600;2022-11-20T05:18:30;0.30;;;0.30;;
6346;SDS011;3206;42.666;23.600;2022-11-20T05:20:57;0.40;;;0.40;;
6346;SDS011;3206;42.666;23.600;2022-11-20T05:23:24;0.47;;;0.47;;
6346;SDS011;3206;42.666;23.600;2022-11-20T05:25:52;0.40;;;0.40;;
6346;SDS011;3206;42.666;23.600;2022-11-20T05:28:19;0.80;;;0.80;;
6346;SDS011;3206;42.666;23.600;2022-11-20T05:30:48;0.43;;;0.43;;
6346;SDS011;3206;42.666;23.600;2022-11-20T05:33:15;0.50;;;0.50;;
6346;SDS011;3206;42.666;23.600;2022-11-20T05:35:42;0.30;;;0.30;;
6346;SDS011;3206;42.666;23.600;2022-11-20T05:38:09;0.70;;;0.70;;
6346;SDS011;3206;42.666;23.600;2022-11-20T05:40:36;0.68;;;0.68;;
6346;SDS011;3206;42.666;23.600;2022-11-20T05:43:03;0.70;;;0.45;;
6346;SDS011;3206;42.666;23.600;2022-11-20T05:45:30;0.57;;;0.57;;
6346;SDS011;3206;42.666;23.600;2022-11-20T05:47:59;0.30;;;0.30;;
6346;SDS011;3206;42.666;23.600;2022-11-20T05:50:26;0.60;;;0.60;;
6346;SDS011;3206;42.666;23.600;2022-11-20T05:52:53;0.43;;;0.43;;
6346;SDS011;3206;42.666;23.600;2022-11-20T05:55:19;0.65;;;0.65;;
6346;SDS011;3206;42.666;23.600;2022-11-20T05:57:46;1.60;;;0.60;;
6346;SDS011;3206;42.666;23.600;2022-11-20T06:00:13;0.95;;;0.60;;
6346;SDS011;3206;42.666;23.600;2022-11-20T06:02:40;0.60;;;0.60;;
6346;SDS011;3206;42.666;23.600;2022-11-20T06:05:09;0.68;;;0.68;;
6346;SDS011;3206;42.666;23.600;2022-11-20T06:07:35;1.17;;;0.63;;
6346;SDS011;3206;42.666;23.600;2022-11-20T06:10:03;1.00;;;0.80;;
6346;SDS011;3206;42.666;23.600;2022-11-20T06:12:31;0.98;;;0.82;;
6346;SDS011;3206;42.666;23.600;2022-11-20T06:14:58;0.50;;;0.50;;
6346;SDS011;3206;42.666;23.600;2022-11-20T06:17:25;0.30;;;0.30;;
6346;SDS011;3206;42.666;23.600;2022-11-20T06:19:52;0.63;;;0.60;;
6346;SDS011;3206;42.666;23.600;2022-11-20T06:22:20;0.40;;;0.40;;
6346;SDS011;3206;42.666;23.600;2022-11-20T06:24:47;0.80;;;0.80;;
6346;SDS011;3206;42.666;23.600;2022-11-20T06:27:14;0.80;;;0.68;;
6346;SDS011;3206;42.666;23.600;2022-11-20T06:29:41;1.27;;;1.23;;
6346;SDS011;3206;42.666;23.600;2022-11-20T06:32:08;0.38;;;0.38;;
6346;SDS011;3206;42.666;23.600;2022-11-20T06:34:34;0.50;;;0.50;;
6346;SDS011;3206;42.666;23.600;2022-11-20T06:37:01;0.80;;;0.80;;
6346;SDS011;3206;42.666;23.600;2022-11-20T06:39:29;0.95;;;0.70;;
6346;SDS011;3206;42.666;23.600;2022-11-20T06:41:55;4.97;;;1.20;;
6346;SDS011;3206;42.666;23.600;2022-11-20T06:44:22;0.40;;;0.40;;
6346;SDS011;3206;42.666;23.600;2022-11-20T06:46:49;0.40;;;0.40;;
6346;SDS011;3206;42.666;23.600;2022-11-20T06:49:15;0.57;;;0.57;;
6346;SDS011;3206;42.666;23.600;2022-11-20T06:51:42;0.45;;;0.45;;
6346;SDS011;3206;42.666;23.600;2022-11-20T06:54:09;0.35;;;0.35;;
6346;SDS011;3206;42.666;23.600;2022-11-20T06:56:36;0.50;;;0.50;;
6346;SDS011;3206;42.666;23.600;2022-11-20T06:59:03;0.73;;;0.73;;
6346;SDS011;3206;42.666;23.600;2022-11-20T07:01:31;0.50;;;0.50;;
6346;SDS011;3206;42.666;23.600;2022-11-20T07:03:58;0.68;;;0.68;;
6346;SDS011;3206;42.666;23.600;2022-11-20T07:06:24;0.40;;;0.40;;
6346;SDS011;3206;42.666;23.600;2022-11-20T07:08:51;0.80;;;0.60;;
6346;SDS011;3206;42.666;23.600;2022-11-20T07:11:18;0.55;;;0.55;;
6346;SDS011;3206;42.666;23.600;2022-11-20T07:13:46;0.68;;;0.68;;
6346;SDS011;3206;42.666;23.600;2022-11-20T07:16:12;4.43;;;0.80;;
6346;SDS011;3206;42.666;23.600;2022-11-20T07:18:39;7.60;;;0.88;;
6346;SDS011;3206;42.666;23.600;2022-11-20T07:21:06;0.77;;;0.60;;
6346;SDS011;3206;42.666;23.600;2022-11-20T07:23:35;0.77;;;0.77;;
6346;SDS011;3206;42.666;23.600;2022-11-20T07:26:02;0.63;;;0.63;;
6346;SDS011;3206;42.666;23.600;2022-11-20T07:28:30;0.40;;;0.40;;
6346;SDS011;3206;42.666;23.600;2022-11-20T07:30:59;0.95;;;0.95;;
6346;SDS011;3206;42.666;23.600;2022-11-20T07:33:26;3.42;;;1.65;;
6346;SDS011;3206;42.666;23.600;2022-11-20T07:35:52;1.17;;;1.15;;
6346;SDS011;3206;42.666;23.600;2022-11-20T07:38:19;2.75;;;1.77;;
6346;SDS011;3206;42.666;23.600;2022-11-20T07:40:45;1.30;;;1.30;;
6346;SDS011;3206;42.666;23.600;2022-11-20T07:43:12;11.32;;;1.30;;
6346;SDS011;3206;42.666;23.600;2022-11-20T07:45:39;2.05;;;1.52;;
6346;SDS011;3206;42.666;23.600;2022-11-20T07:48:07;2.72;;;1.35;;
6346;SDS011;3206;42.666;23.600;2022-11-20T07:50:33;0.93;;;0.90;;
6346;SDS011;3206;42.666;23.600;2022-11-20T07:53:00;1.10;;;1.10;;
6346;SDS011;3206;42.666;23.600;2022-11-20T07:55:28;1.00;;;1.00;;
6346;SDS011;3206;42.666;23.600;2022-11-20T07:57:55;1.65;;;1.55;;
6346;SDS011;3206;42.666;23.600;2022-11-20T08:00:22;1.42;;;1.33;;
6346;SDS011;3206;42.666;23.600;2022-11-20T08:02:49;1.23;;;1.20;;
6346;SDS011;3206;42.666;23.600;2022-11-20T08:05:17;1.35;;;1.30;;
6346;SDS011;3206;42.666;23.600;2022-11-20T08:07:44;1.08;;;0.98;;
6346;SDS011;3206;42.666;23.600;2022-11-20T08:10:12;2.75;;;0.88;;
6346;SDS011;3206;42.666;23.600;2022-11-20T08:12:43;1.73;;;1.27;;
6346;SDS011;3206;42.666;23.600;2022-11-20T08:15:28;1.38;;;1.27;;
6346;SDS011;3206;42.666;23.600;2022-11-20T08:17:58;2.95;;;1.80;;
6346;SDS011;3206;42.666;23.600;2022-11-20T08:20:27;3.20;;;2.30;;
6346;SDS011;3206;42.666;23.600;2022-11-20T08:22:57;5.40;;;2.85;;
6346;SDS011;3206;42.666;23.600;2022-11-20T08:25:24;3.20;;;2.15;;
6346;SDS011;3206;42.666;23.600;2022-11-20T08:27:51;1.42;;;1.30;;
6346;SDS011;3206;42.666;23.600;2022-11-20T08:30:18;2.30;;;2.10;;
6346;SDS011;3206;42.666;23.600;2022-11-20T08:32:44;3.22;;;2.92;;
6346;SDS011;3206;42.666;23.600;2022-11-20T08:35:11;3.80;;;2.58;;
6346;SDS011;3206;42.666;23.600;2022-11-20T08:37:39;3.38;;;2.47;;
6346;SDS011;3206;42.666;23.600;2022-11-20T08:40:07;3.15;;;2.22;;
6346;SDS011;3206;42.666;23.600;2022-11-20T08:42:35;6.45;;;2.10;;
6346;SDS011;3206;42.666;23.600;2022-11-20T08:45:02;3.22;;;2.38;;
6346;SDS011;3206;42.666;23.600;2022-11-20T08:47:29;7.25;;;2.65;;
6346;SDS011;3206;42.666;23.600;2022-11-20T08:49:56;6.28;;;2.72;;
6346;SDS011;3206;42.666;23.600;2022-11-20T08:52:23;3.40;;;2.10;;
6346;SDS011;3206;42.666;23.600;2022-11-20T08:54:51;2.17;;;1.98;;
6346;SDS011;3206;42.666;23.600;2022-11-20T08:57:17;3.13;;;2.05;;
6346;SDS011;3206;42.666;23.600;2022-11-20T08:59:44;2.28;;;1.45;;
6346;SDS011;3206;42.666;23.600;2022-11-20T09:02:11;2.92;;;1.88;;
6346;SDS011;3206;42.666;23.600;2022-11-20T09:04:37;5.57;;;2.75;;
6346;SDS011;3206;42.666;23.600;2022-11-20T09:07:04;3.33;;;2.45;;
6346;SDS011;3206;42.666;23.600;2022-11-20T09:09:31;3.20;;;2.33;;
6346;SDS011;3206;42.666;23.600;2022-11-20T09:11:59;4.28;;;2.00;;
6346;SDS011;3206;42.666;23.600;2022-11-20T09:14:25;3.55;;;2.20;;
6346;SDS011;3206;42.666;23.600;2022-11-20T09:16:54;4.22;;;2.00;;
6346;SDS011;3206;42.666;23.600;2022-11-20T09:19:20;4.15;;;2.88;;
6346;SDS011;3206;42.666;23.600;2022-11-20T09:21:47;5.80;;;2.83;;
6346;SDS011;3206;42.666;23.600;2022-11-20T09:24:14;4.82;;;2.40;;
6346;SDS011;3206;42.666;23.600;2022-11-20T09:26:40;2.67;;;1.90;;
6346;SDS011;3206;42.666;23.600;2022-11-20T09:29:08;6.07;;;2.80;;
6346;SDS011;3206;42.666;23.600;2022-11-20T09:31:35;1.88;;;1.70;;
6346;SDS011;3206;42.666;23.600;2022-11-20T09:34:02;3.60;;;2.53;;
6346;SDS011;3206;42.666;23.600;2022-11-20T09:36:29;3.95;;;2.20;;
6346;SDS011;3206;42.666;23.600;2022-11-20T09:38:55;3.70;;;2.33;;
6346;SDS011;3206;42.666;23.600;2022-11-20T09:41:36;6.13;;;3.17;;
6346;SDS011;3206;42.666;23.600;2022-11-20T09:44:22;3.92;;;2.35;;
6346;SDS011;3206;42.666;23.600;2022-11-20T09:47:06;3.75;;;2.78;;
6346;SDS011;3206;42.666;23.600;2022-11-20T09:49:40;11.93;;;5.68;;
6346;SDS011;3206;42.666;23.600;2022-11-20T09:52:22;3.83;;;2.47;;
6346;SDS011;3206;42.666;23.600;2022-11-20T09:54:58;2.33;;;1.90;;
6346;SDS011;3206;42.666;23.600;2022-11-20T09:57:30;2.47;;;2.05;;
6346;SDS011;3206;42.666;23.600;2022-11-20T10:00:09;1.95;;;1.85;;
6346;SDS011;3206;42.666;23.600;2022-11-20T10:02:39;2.45;;;1.45;;
6346;SDS011;3206;42.666;23.600;2022-11-20T10:05:10;2.08;;;1.98;;
6346;SDS011;3206;42.666;23.600;2022-11-20T10:07:42;8.13;;;1.70;;
6346;SDS011;3206;42.666;23.600;2022-11-20T10:10:14;2.08;;;1.98;;
6346;SDS011;3206;42.666;23.600;2022-11-20T10:12:46;2.22;;;1.70;;
6346;SDS011;3206;42.666;23.600;2022-11-20T10:15:29;2.03;;;1.88;;
6346;SDS011;3206;42.666;23.600;2022-11-20T10:18:17;7.20;;;2.45;;
6346;SDS011;3206;42.666;23.600;2022-11-20T10:20:54;3.50;;;2.90;;
6346;SDS011;3206;42.666;23.600;2022-11-20T10:23:35;1.83;;;1.73;;
6346;SDS011;3206;42.666;23.600;2022-11-20T10:26:20;1.67;;;1.58;;
6346;SDS011;3206;42.666;23.600;2022-11-20T10:28:56;3.65;;;1.58;;
6346;SDS011;3206;42.666;23.600;2022-11-20T10:31:37;0.88;;;0.88;;
6346;SDS011;3206;42.666;23.600;2022-11-20T10:34:11;0.60;;;0.60;;
6346;SDS011;3206;42.666;23.600;2022-11-20T10:36:46;1.13;;;1.13;;
6346;SDS011;3206;42.666;23.600;2022-11-20T10:39:16;1.13;;;1.13;;
6346;SDS011;3206;42.666;23.600;2022-11-20T10:41:50;0.90;;;0.90;;
6346;SDS011;3206;42.666;23.600;2022-11-20T10:44:19;0.70;;;0.70;;
6346;SDS011;3206;42.666;23.600;2022-11-20T10:47:02;0.65;;;0.65;;
6346;SDS011;3206;42.666;23.600;2022-11-20T10:49:30;0.82;;;0.82;;
6346;SDS011;3206;42.666;23.600;2022-11-20T10:52:02;1.95;;;1.75;;
6346;SDS011;3206;42.666;23.600;2022-11-20T10:54:36;2.08;;;1.83;;
6346;SDS011;3206;42.666;23.600;2022-11-20T10:57:15;1.60;;;1.33;;
6346;SDS011;3206;42.666;23.600;2022-11-20T10:59:54;1.02;;;0.88;;
6346;SDS011;3206;42.666;23.600;2022-11-20T11:02:32;5.40;;;1.95;;
6346;SDS011;3206;42.666;23.600;2022-11-20T11:05:10;2.53;;;0.93;;
6346;SDS011;3206;42.666;23.600;2022-11-20T11:07:41;1.10;;;1.10;;
6346;SDS011;3206;42.666;23.600;2022-11-20T11:10:14;2.88;;;1.42;;
6346;SDS011;3206;42.666;23.600;2022-11-20T11:12:43;1.50;;;1.40;;
6346;SDS011;3206;42.666;23.600;2022-11-20T11:15:13;0.98;;;0.98;;
6346;SDS011;3206;42.666;23.600;2022-11-20T11:17:51;1.45;;;1.30;;
6346;SDS011;3206;42.666;23.600;2022-11-20T11:20:19;2.17;;;1.98;;
6346;SDS011;3206;42.666;23.600;2022-11-20T11:22:47;2.92;;;2.67;;
6346;SDS011;3206;42.666;23.600;2022-11-20T11:25:22;2.08;;;1.92;;
6346;SDS011;3206;42.666;23.600;2022-11-20T11:27:54;2.35;;;2.10;;
6346;SDS011;3206;42.666;23.600;2022-11-20T11:30:22;3.15;;;2.92;;
6346;SDS011;3206;42.666;23.600;2022-11-20T11:33:01;7.63;;;2.10;;
6346;SDS011;3206;42.666;23.600;2022-11-20T11:35:29;1.20;;;1.13;;
6346;SDS011;3206;42.666;23.600;2022-11-20T11:38:02;0.45;;;0.45;;
6346;SDS011;3206;42.666;23.600;2022-11-20T11:40:31;1.60;;;1.38;;
6346;SDS011;3206;42.666;23.600;2022-11-20T11:42:59;1.55;;;1.45;;
6346;SDS011;3206;42.666;23.600;2022-11-20T11:45:28;0.93;;;0.93;;
6346;SDS011;3206;42.666;23.600;2022-11-20T11:47:56;1.30;;;1.20;;
6346;SDS011;3206;42.666;23.600;2022-11-20T11:50:25;10.77;;;2.85;;
6346;SDS011;3206;42.666;23.600;2022-11-20T11:53:04;1.90;;;1.70;;
6346;SDS011;3206;42.666;23.600;2022-11-20T11:55:36;3.78;;;2.60;;
6346;SDS011;3206;42.666;23.600;2022-11-20T11:58:11;1.90;;;1.40;;
6346;SDS011;3206;42.666;23.600;2022-11-20T12:00:45;1.25;;;1.05;;
6346;SDS011;3206;42.666;23.600;2022-11-20T12:03:19;1.80;;;1.67;;
6346;SDS011;3206;42.666;23.600;2022-11-20T12:05:51;1.83;;;1.73;;
6346;SDS011;3206;42.666;23.600;2022-11-20T12:08:25;1.77;;;1.40;;
6346;SDS011;3206;42.666;23.600;2022-11-20T12:10:57;1.13;;;1.13;;
6346;SDS011;3206;42.666;23.600;2022-11-20T12:13:39;1.83;;;1.05;;
6346;SDS011;3206;42.666;23.600;2022-11-20T12:16:11;1.30;;;1.27;;
6346;SDS011;3206;42.666;23.600;2022-11-20T12:18:41;0.93;;;0.93;;
6346;SDS011;3206;42.666;23.600;2022-11-20T12:21:15;1.05;;;1.02;;
6346;SDS011;3206;42.666;23.600;2022-11-20T12:23:50;1.20;;;1.15;;
6346;SDS011;3206;42.666;23.600;2022-11-20T12:26:38;0.55;;;0.55;;
6346;SDS011;3206;42.666;23.600;2022-11-20T12:29:15;1.05;;;0.95;;
6346;SDS011;3206;42.666;23.600;2022-11-20T12:31:52;1.05;;;0.98;;
6346;SDS011;3206;42.666;23.600;2022-11-20T12:34:37;0.30;;;0.30;;
6346;SDS011;3206;42.666;23.600;2022-11-20T12:37:15;1.00;;;1.00;;
6346;SDS011;3206;42.666;23.600;2022-11-20T12:39:50;1.88;;;1.02;;
6346;SDS011;3206;42.666;23.600;2022-11-20T12:42:23;1.05;;;1.05;;
6346;SDS011;3206;42.666;23.600;2022-11-20T12:45:20;0.88;;;0.88;;
6346;SDS011;3206;42.666;23.600;2022-11-20T12:50:57;1.23;;;1.23;;
6346;SDS011;3206;42.666;23.600;2022-11-20T12:53:40;1.60;;;0.88;;
6346;SDS011;3206;42.666;23.600;2022-11-20T12:56:16;0.70;;;0.65;;
6346;SDS011;3206;42.666;23.600;2022-11-20T12:58:53;0.70;;;0.70;;
6346;SDS011;3206;42.666;23.600;2022-11-20T13:01:32;0.60;;;0.60;;
6346;SDS011;3206;42.666;23.600;2022-11-20T13:04:13;1.02;;;0.93;;
6346;SDS011;3206;42.666;23.600;2022-11-20T13:06:51;1.20;;;0.80;;
6346;SDS011;3206;42.666;23.600;2022-11-20T13:09:19;0.88;;;0.88;;
6346;SDS011;3206;42.666;23.600;2022-11-20T13:11:50;1.30;;;1.20;;
6346;SDS011;3206;42.666;23.600;2022-11-20T13:14:30;0.85;;;0.85;;
6346;SDS011;3206;42.666;23.600;2022-11-20T13:17:04;1.85;;;1.58;;
6346;SDS011;3206;42.666;23.600;2022-11-20T13:19:35;1.83;;;1.52;;
6346;SDS011;3206;42.666;23.600;2022-11-20T13:22:04;2.45;;;2.25;;
6346;SDS011;3206;42.666;23.600;2022-11-20T13:24:31;3.53;;;2.17;;
6346;SDS011;3206;42.666;23.600;2022-11-20T13:27:02;0.75;;;0.75;;
6346;SDS011;3206;42.666;23.600;2022-11-20T13:29:31;1.35;;;1.15;;
6346;SDS011;3206;42.666;23.600;2022-11-20T13:32:04;0.82;;;0.82;;
6346;SDS011;3206;42.666;23.600;2022-11-20T13:34:33;0.88;;;0.88;;
6346;SDS011;3206;42.666;23.600;2022-11-20T13:37:00;1.25;;;1.25;;
6346;SDS011;3206;42.666;23.600;2022-11-20T13:39:30;1.45;;;0.98;;
6346;SDS011;3206;42.666;23.600;2022-11-20T13:41:59;1.27;;;1.17;;
6346;SDS011;3206;42.666;23.600;2022-11-20T13:44:28;2.38;;;1.88;;
6346;SDS011;3206;42.666;23.600;2022-11-20T13:47:00;1.15;;;1.15;;
6346;SDS011;3206;42.666;23.600;2022-11-20T13:49:32;2.33;;;2.10;;
6346;SDS011;3206;42.666;23.600;2022-11-20T13:52:07;1.52;;;;;
6346;SDS011;3206;42.666;23.600;2022-11-20T13:55:05;3.95;;;1.48;;
6346;SDS011;3206;42.666;23.600;2022-11-20T13:57:57;5.60;;;4.10;;
6346;SDS011;3206;42.666;23.600;2022-11-20T14:00:33;9.73;;;4.60;;
6346;SDS011;3206;42.666;23.600;2022-11-20T14:03:09;7.40;;;4.05;;
6346;SDS011;3206;42.666;23.600;2022-11-20T14:05:46;4.07;;;3.20;;
6346;SDS011;3206;42.666;23.600;2022-11-20T14:08:21;4.63;;;2.90;;
6346;SDS011;3206;42.666;23.600;2022-11-20T14:11:03;10.68;;;2.00;;
6346;SDS011;3206;42.666;23.600;2022-11-20T14:13:31;2.38;;;1.85;;
6346;SDS011;3206;42.666;23.600;2022-11-20T14:15:58;3.33;;;2.25;;
6346;SDS011;3206;42.666;23.600;2022-11-20T14:18:25;3.20;;;2.53;;
6346;SDS011;3206;42.666;23.600;2022-11-20T14:20:53;2.97;;;2.28;;
6346;SDS011;3206;42.666;23.600;2022-11-20T14:23:24;5.15;;;2.72;;
6346;SDS011;3206;42.666;23.600;2022-11-20T14:25:52;3.42;;;2.90;;
6346;SDS011;3206;42.666;23.600;2022-11-20T14:28:24;1.83;;;1.70;;
6346;SDS011;3206;42.666;23.600;2022-11-20T14:30:53;1.75;;;1.55;;
6346;SDS011;3206;42.666;23.600;2022-11-20T14:33:20;2.20;;;2.08;;
6346;SDS011;3206;42.666;23.600;2022-11-20T14:35:50;1.77;;;1.67;;
6346;SDS011;3206;42.666;23.600;2022-11-20T14:38:20;21.95;;;11.38;;
6346;SDS011;3206;42.666;23.600;2022-11-20T14:40:50;20.08;;;9.88;;
6346;SDS011;3206;42.666;23.600;2022-11-20T14:43:18;14.85;;;8.68;;
6346;SDS011;3206;42.666;23.600;2022-11-20T14:45:51;11.40;;;7.15;;
6346;SDS011;3206;42.666;23.600;2022-11-20T14:48:23;11.65;;;7.38;;
6346;SDS011;3206;42.666;23.600;2022-11-20T14:50:55;10.80;;;6.28;;
6346;SDS011;3206;42.666;23.600;2022-11-20T14:53:22;22.07;;;9.03;;
6346;SDS011;3206;42.666;23.600;2022-11-20T14:55:54;12.07;;;8.40;;
6346;SDS011;3206;42.666;23.600;2022-11-20T14:58:23;12.17;;;8.17;;
6346;SDS011;3206;42.666;23.600;2022-11-20T15:00:54;7.37;;;4.83;;
6346;SDS011;3206;42.666;23.600;2022-11-20T15:03:22;9.47;;;6.03;;
6346;SDS011;3206;42.666;23.600;2022-11-20T15:05:49;6.10;;;5.43;;
6346;SDS011;3206;42.666;23.600;2022-11-20T15:08:17;5.57;;;4.77;;
6346;SDS011;3206;42.666;23.600;2022-11-20T15:10:47;5.67;;;4.13;;
6346;SDS011;3206;42.666;23.600;2022-11-20T15:13:16;8.27;;;7.23;;
6346;SDS011;3206;42.666;23.600;2022-11-20T15:15:50;11.47;;;6.73;;
6346;SDS011;3206;42.666;23.600;2022-11-20T15:18:22;12.13;;;7.83;;
6346;SDS011;3206;42.666;23.600;2022-11-20T15:20:50;15.20;;;7.33;;